Time;durP1;ratioP1;P1;durP2;ratioP2;P2;SDS_P1;SDS_P2;PMS_P1;PMS_P2;Temp;Humidity;BMP_temperature;BMP_pressure;BME280_temperature;BME280_humidity;BME280_pressure;Samples;Min_cycle;Max_cycle;Signal;HPM_P1;HPM_P2
2022/11/27 00:01:27;;;;;;;10.57;3.13;;;7.50;85.70;;;;;;5032763;28;20257;-70
2022/11/27 00:03:55;;;;;;;12.38;3.50;;;7.40;85.50;;;;;;5031558;28;20062;-70
2022/11/27 00:06:24;;;;;;;11.85;4.10;;;7.40;85.50;;;;;;5032563;28;21026;-70
2022/11/27 00:08:55;;;;;;;10.20;3.42;;;7.40;85.60;;;;;;5033028;28;20058;-70
2022/11/27 00:11:24;;;;;;;14.40;3.80;;;7.40;85.60;;;;;;5031147;28;20053;-70
2022/11/27 00:13:52;;;;;;;14.85;4.05;;;7.30;85.50;;;;;;5031803;28;20284;-70
2022/11/27 00:16:20;;;;;;;10.93;3.65;;;7.30;85.50;;;;;;5031628;28;20452;-70
2022/11/27 00:18:48;;;;;;;11.00;3.80;;;7.20;85.60;;;;;;5031437;28;20054;-70
2022/11/27 00:21:18;;;;;;;13.00;3.58;;;7.20;85.60;;;;;;5031282;28;20052;-70
2022/11/27 00:23:45;;;;;;;7.70;2.80;;;7.20;85.60;;;;;;5030855;28;20654;-70
2022/11/27 00:26:14;;;;;;;13.20;3.75;;;7.20;85.70;;;;;;5031358;28;20759;-70
2022/11/27 00:28:42;;;;;;;11.68;3.67;;;7.20;85.50;;;;;;5047805;28;20041;-70
2022/11/27 00:31:14;;;;;;;12.73;3.88;;;7.20;85.50;;;;;;5031326;28;20136;-70
2022/11/27 00:33:41;;;;;;;12.57;3.53;;;7.20;85.70;;;;;;5031421;28;20133;-70
2022/11/27 00:36:09;;;;;;;10.77;3.80;;;7.20;85.50;;;;;;5048764;28;20167;-70
2022/11/27 00:38:37;;;;;;;11.30;3.47;;;7.20;85.50;;;;;;5052402;28;20345;-70
2022/11/27 00:41:06;;;;;;;13.77;4.50;;;7.20;85.50;;;;;;5031468;28;20503;-70
2022/11/27 00:43:35;;;;;;;11.63;3.60;;;7.20;85.50;;;;;;5047524;28;20057;-70
2022/11/27 00:46:02;;;;;;;12.50;4.10;;;7.10;85.40;;;;;;5031069;28;20062;-70
2022/11/27 00:48:29;;;;;;;11.87;4.23;;;7.10;85.40;;;;;;5030907;28;20054;-70
2022/11/27 00:51:00;;;;;;;15.10;4.07;;;7.10;85.30;;;;;;5030310;28;20285;-70
2022/11/27 00:53:27;;;;;;;12.55;4.07;;;7.10;85.20;;;;;;5032247;28;20057;-70
2022/11/27 00:55:55;;;;;;;10.45;3.70;;;7.10;85.10;;;;;;5031982;28;20133;-70
2022/11/27 00:58:22;;;;;;;14.38;3.90;;;7.00;85.10;;;;;;5032339;28;20097;-70
2022/11/27 01:00:56;;;;;;;9.40;3.67;;;7.00;85.00;;;;;;5047038;28;20085;-70
2022/11/27 01:03:23;;;;;;;10.90;3.95;;;7.00;84.90;;;;;;5030590;28;20258;-70
2022/11/27 01:05:51;;;;;;;13.23;3.70;;;7.00;84.70;;;;;;5029492;28;20129;-70
2022/11/27 01:08:19;;;;;;;13.95;4.93;;;7.00;84.70;;;;;;5030738;28;20757;-70
2022/11/27 01:10:49;;;;;;;13.60;4.57;;;7.00;84.80;;;;;;5031951;28;20057;-70
2022/11/27 01:13:17;;;;;;;10.73;3.63;;;7.00;84.70;;;;;;5030451;28;20053;-70
2022/11/27 01:15:44;;;;;;;9.70;3.92;;;7.00;84.70;;;;;;5030056;28;20269;-70
2022/11/27 01:18:13;;;;;;;10.85;3.83;;;7.00;84.70;;;;;;5032272;28;20141;-70
2022/11/27 01:20:40;;;;;;;11.27;3.97;;;6.90;84.70;;;;;;5027026;28;20136;-70
2022/11/27 01:23:07;;;;;;;11.35;4.00;;;6.90;84.70;;;;;;5012138;28;20491;-70
2022/11/27 01:25:35;;;;;;;11.37;3.93;;;6.90;84.60;;;;;;5031845;28;20129;-70
2022/11/27 01:28:02;;;;;;;16.48;4.50;;;6.90;84.70;;;;;;5030374;28;20246;-70
2022/11/27 01:30:29;;;;;;;13.65;4.10;;;6.80;84.70;;;;;;5029842;28;20062;-70
2022/11/27 01:32:56;;;;;;;13.18;4.22;;;6.80;84.70;;;;;;5029999;28;20046;-70
2022/11/27 01:35:24;;;;;;;9.93;3.67;;;6.80;84.80;;;;;;5041342;28;20091;-70
2022/11/27 01:37:51;;;;;;;9.53;3.97;;;6.80;84.70;;;;;;5051706;28;20057;-70
2022/11/27 01:40:18;;;;;;;10.63;3.78;;;6.80;84.70;;;;;;5029007;28;20769;-70
2022/11/27 01:42:46;;;;;;;12.70;3.60;;;6.80;84.70;;;;;;5029474;28;20057;-70
2022/11/27 01:45:16;;;;;;;12.38;4.05;;;6.80;84.70;;;;;;5031198;28;20050;-70
2022/11/27 01:47:47;;;;;;;9.82;3.47;;;6.70;84.60;;;;;;5031509;28;20148;-70
2022/11/27 01:50:20;;;;;;;10.70;4.10;;;6.70;84.70;;;;;;5029739;28;20077;-70
2022/11/27 01:52:52;;;;;;;9.63;3.80;;;6.70;84.70;;;;;;5029879;28;20260;-70
2022/11/27 01:55:25;;;;;;;11.85;3.88;;;6.70;84.70;;;;;;5030996;28;20074;-70
2022/11/27 01:57:57;;;;;;;10.43;3.95;;;6.70;84.50;;;;;;5028724;28;20902;-70
2022/11/27 02:00:25;;;;;;;13.55;3.90;;;6.70;84.50;;;;;;5031048;28;20518;-70
2022/11/27 02:02:52;;;;;;;12.63;4.10;;;6.60;84.50;;;;;;5029570;28;20056;-70
2022/11/27 02:05:24;;;;;;;10.07;3.55;;;6.60;84.40;;;;;;5030056;28;20675;-70
2022/11/27 02:07:53;;;;;;;9.93;4.10;;;6.60;84.40;;;;;;5029531;28;20409;-70
2022/11/27 02:10:21;;;;;;;11.02;3.58;;;6.60;84.40;;;;;;5031013;28;20054;-70
2022/11/27 02:12:56;;;;;;;11.38;4.30;;;6.50;84.40;;;;;;5031059;28;20611;-70
2022/11/27 02:15:30;;;;;;;13.10;4.17;;;6.50;84.40;;;;;;5029837;28;20065;-70
2022/11/27 02:18:06;;;;;;;10.02;2.92;;;6.50;84.40;;;;;;5029451;28;20261;-70
2022/11/27 02:20:45;;;;;;;13.05;3.90;;;6.50;84.40;;;;;;5029761;28;20058;-70
2022/11/27 02:23:32;;;;;;;10.00;3.80;;;6.50;84.40;;;;;;5029180;28;20540;-70
2022/11/27 02:26:17;;;;;;;13.18;4.13;;;6.50;84.30;;;;;;5030839;28;20144;-70
2022/11/27 02:29:00;;;;;;;9.70;3.60;;;6.40;84.40;;;;;;5029262;28;20053;-70
2022/11/27 02:31:36;;;;;;;14.05;4.18;;;6.40;84.30;;;;;;5029541;28;20256;-70
2022/11/27 02:34:15;;;;;;;10.25;4.00;;;6.40;84.30;;;;;;5024573;28;20046;-70
2022/11/27 02:36:49;;;;;;;12.68;4.45;;;6.40;84.20;;;;;;5009816;28;20050;-70
2022/11/27 02:39:20;;;;;;;12.57;4.18;;;6.40;84.20;;;;;;5003284;28;20043;-70
2022/11/27 02:41:53;;;;;;;10.10;3.70;;;6.40;84.20;;;;;;5014450;28;20081;-70
2022/11/27 02:44:23;;;;;;;9.93;4.10;;;6.40;84.30;;;;;;5028832;28;20257;-70
2022/11/27 02:46:51;;;;;;;12.75;4.05;;;6.30;84.30;;;;;;5030503;28;20112;-70
2022/11/27 02:49:19;;;;;;;11.02;3.42;;;6.40;84.20;;;;;;5028529;28;20967;-70
2022/11/27 02:51:50;;;;;;;10.70;3.50;;;6.40;84.10;;;;;;5028883;28;20058;-70
2022/11/27 02:54:24;;;;;;;11.67;4.03;;;6.30;84.10;;;;;;5027862;28;20125;-70
2022/11/27 02:56:53;;;;;;;13.93;3.72;;;6.30;84.10;;;;;;5045779;28;20287;-70
2022/11/27 02:59:24;;;;;;;12.52;3.67;;;6.30;84.10;;;;;;5029716;28;20973;-70
2022/11/27 03:01:55;;;;;;;11.18;3.15;;;6.30;84.20;;;;;;5029102;28;20157;-70
2022/11/27 03:04:31;;;;;;;12.98;4.18;;;6.30;84.20;;;;;;5045237;28;20054;-70
2022/11/27 03:07:02;;;;;;;10.83;3.43;;;6.30;84.20;;;;;;5028607;28;20046;-70
2022/11/27 03:09:34;;;;;;;6.82;2.30;;;6.30;84.20;;;;;;5024638;28;20258;-70
2022/11/27 03:12:02;;;;;;;13.40;3.47;;;6.30;84.20;;;;;;5010491;28;20612;-70
2022/11/27 03:14:31;;;;;;;11.32;3.35;;;6.30;84.10;;;;;;5010376;28;20163;-70
2022/11/27 03:17:05;;;;;;;10.18;3.38;;;6.30;84.10;;;;;;5031065;28;20062;-70
2022/11/27 03:19:42;;;;;;;8.43;3.27;;;6.30;84.10;;;;;;5008887;28;20057;-70
2022/11/27 03:22:10;;;;;;;9.40;2.80;;;6.30;84.20;;;;;;5009858;28;20341;-70
2022/11/27 03:24:37;;;;;;;9.23;2.90;;;6.30;84.10;;;;;;5027020;28;20054;-70
2022/11/27 03:27:06;;;;;;;11.45;3.85;;;6.30;84.00;;;;;;5029974;28;20475;-70
2022/11/27 03:29:38;;;;;;;10.43;3.30;;;6.30;83.70;;;;;;5008490;28;20057;-70
2022/11/27 03:32:05;;;;;;;8.40;3.33;;;6.30;83.80;;;;;;5010257;28;20086;-70
2022/11/27 03:34:33;;;;;;;9.52;3.35;;;6.30;83.90;;;;;;5048300;28;20315;-70
2022/11/27 03:37:01;;;;;;;8.43;2.97;;;6.30;83.80;;;;;;5048485;28;20124;-70
2022/11/27 03:39:29;;;;;;;11.57;3.03;;;6.30;83.80;;;;;;5031243;28;20177;-70
2022/11/27 03:42:09;;;;;;;10.07;3.13;;;6.30;83.80;;;;;;5026918;28;20157;-70
2022/11/27 03:44:42;;;;;;;10.70;3.53;;;6.30;83.70;;;;;;5029960;28;20612;-70
2022/11/27 03:47:19;;;;;;;12.18;2.88;;;6.30;83.80;;;;;;5025232;28;20336;-70
2022/11/27 03:49:59;;;;;;;9.73;3.55;;;6.20;83.90;;;;;;5013761;28;20149;-70
2022/11/27 03:52:35;;;;;;;12.77;3.95;;;6.30;83.90;;;;;;5028632;28;20041;-70
2022/11/27 03:55:10;;;;;;;12.55;3.28;;;6.30;83.90;;;;;;5029650;28;20133;-70
2022/11/27 03:57:42;;;;;;;10.30;2.80;;;6.30;83.90;;;;;;5029370;28;20052;-70
2022/11/27 04:00:12;;;;;;;9.38;3.08;;;6.30;83.90;;;;;;5027891;28;20324;-70
2022/11/27 04:02:43;;;;;;;10.35;3.70;;;6.30;83.90;;;;;;5027958;28;20046;-70
2022/11/27 04:05:10;;;;;;;10.95;3.30;;;6.30;83.80;;;;;;5028462;28;20795;-70
2022/11/27 04:07:38;;;;;;;10.18;3.03;;;6.30;83.90;;;;;;5032640;28;20826;-70
2022/11/27 04:10:06;;;;;;;9.63;2.90;;;6.20;83.70;;;;;;5031314;28;20057;-70
2022/11/27 04:12:34;;;;;;;11.88;3.30;;;6.20;83.70;;;;;;5031631;28;20735;-70
2022/11/27 04:15:01;;;;;;;8.20;2.50;;;6.20;83.80;;;;;;5031449;28;20085;-70
2022/11/27 04:17:29;;;;;;;10.45;2.75;;;6.20;83.70;;;;;;5031626;28;20092;-70
2022/11/27 04:19:56;;;;;;;9.38;2.55;;;6.20;83.70;;;;;;5031203;28;20053;-70
2022/11/27 04:22:23;;;;;;;12.07;3.10;;;6.20;83.80;;;;;;5028192;28;20090;-70
2022/11/27 04:24:50;;;;;;;7.47;2.45;;;6.20;83.80;;;;;;5013020;28;20430;-70
2022/11/27 04:27:18;;;;;;;8.13;2.60;;;6.20;83.70;;;;;;5028796;28;20053;-70
2022/11/27 04:29:45;;;;;;;9.82;2.90;;;6.20;83.70;;;;;;5031097;28;20058;-70
2022/11/27 04:32:12;;;;;;;11.57;3.00;;;6.30;83.70;;;;;;5031353;28;20415;-70
2022/11/27 04:34:40;;;;;;;10.70;2.70;;;6.30;83.70;;;;;;5033645;28;20073;-70
2022/11/27 04:37:07;;;;;;;6.53;2.42;;;6.30;83.70;;;;;;5045165;28;20651;-70
2022/11/27 04:39:34;;;;;;;8.65;2.30;;;6.30;83.70;;;;;;5031926;28;20422;-70
2022/11/27 04:42:01;;;;;;;7.63;2.65;;;6.30;83.70;;;;;;5031331;28;20124;-70
2022/11/27 04:44:28;;;;;;;8.23;2.33;;;6.30;83.70;;;;;;5031977;28;20569;-70
2022/11/27 04:46:55;;;;;;;9.33;2.50;;;6.30;83.70;;;;;;5031107;28;20571;-70
2022/11/27 04:49:22;;;;;;;9.73;2.25;;;6.30;83.60;;;;;;5030391;28;20731;-70
2022/11/27 04:51:51;;;;;;;8.23;2.15;;;6.30;83.30;;;;;;5029918;28;20097;-70
2022/11/27 04:54:18;;;;;;;8.80;2.40;;;6.30;83.20;;;;;;5032154;28;20103;-70
2022/11/27 04:56:45;;;;;;;8.95;2.13;;;6.30;83.20;;;;;;5027730;28;20054;-70
2022/11/27 04:59:12;;;;;;;7.47;2.43;;;6.30;83.20;;;;;;5015768;28;20504;-70
2022/11/27 05:01:40;;;;;;;8.88;2.42;;;6.30;83.20;;;;;;5032171;28;20384;-70
2022/11/27 05:04:07;;;;;;;10.25;2.40;;;6.30;83.20;;;;;;5032158;28;20042;-70
2022/11/27 05:06:34;;;;;;;8.25;2.40;;;6.30;83.20;;;;;;5031768;28;20058;-70
2022/11/27 05:09:02;;;;;;;10.55;2.50;;;6.30;83.20;;;;;;5030426;28;20137;-70
2022/11/27 05:11:30;;;;;;;11.20;2.50;;;6.30;83.20;;;;;;5031788;28;20057;-70
2022/11/27 05:16:39;;;;;;;7.80;2.40;;;6.30;83.10;;;;;;5030879;28;20046;-70
2022/11/27 05:19:06;;;;;;;9.73;1.92;;;6.30;83.00;;;;;;5031161;28;20514;-70
2022/11/27 05:21:33;;;;;;;9.60;2.50;;;6.30;83.20;;;;;;5030516;28;20129;-70
2022/11/27 05:24:01;;;;;;;8.03;2.70;;;6.30;83.00;;;;;;5031710;28;20050;-70
2022/11/27 05:26:28;;;;;;;8.68;2.55;;;6.30;83.00;;;;;;5025554;28;20290;-70
2022/11/27 05:28:55;;;;;;;5.97;1.98;;;6.30;82.90;;;;;;5011811;28;20054;-70
2022/11/27 05:31:23;;;;;;;8.70;2.20;;;6.30;82.80;;;;;;5033408;28;20060;-70
2022/11/27 05:33:50;;;;;;;7.85;2.22;;;6.30;82.80;;;;;;5031606;28;20133;-70
2022/11/27 05:36:17;;;;;;;9.07;2.53;;;6.30;83.00;;;;;;5046840;28;20054;-70
2022/11/27 05:38:44;;;;;;;8.60;2.30;;;6.30;82.90;;;;;;5031520;28;20764;-70
2022/11/27 05:41:12;;;;;;;11.35;2.15;;;6.30;82.90;;;;;;5030997;28;20058;-70
2022/11/27 05:43:40;;;;;;;8.05;2.33;;;6.30;83.00;;;;;;5025342;28;20129;-70
2022/11/27 05:46:08;;;;;;;8.50;2.28;;;6.30;82.90;;;;;;5014078;28;20089;-70
2022/11/27 05:48:36;;;;;;;7.43;1.90;;;6.30;82.90;;;;;;5030340;28;21084;-70
2022/11/27 05:51:04;;;;;;;6.38;2.15;;;6.20;82.90;;;;;;5029745;28;20698;-70
2022/11/27 05:53:31;;;;;;;6.85;2.45;;;6.20;82.70;;;;;;5031431;28;20054;-70
2022/11/27 05:56:02;;;;;;;5.90;2.03;;;6.20;82.80;;;;;;5031207;28;20053;-70
2022/11/27 05:58:30;;;;;;;8.05;2.55;;;6.20;82.70;;;;;;5031087;28;20062;-70
2022/11/27 06:00:57;;;;;;;9.30;2.47;;;6.20;82.60;;;;;;5028180;28;20054;-70
2022/11/27 06:03:26;;;;;;;7.93;2.00;;;6.20;82.70;;;;;;5029560;28;20254;-70
2022/11/27 06:05:53;;;;;;;7.38;2.30;;;6.20;82.60;;;;;;5030076;28;20467;-70
2022/11/27 06:08:20;;;;;;;10.05;2.58;;;6.20;82.70;;;;;;5030101;28;20057;-70
2022/11/27 06:10:48;;;;;;;9.75;2.60;;;6.20;82.70;;;;;;5029446;28;20125;-70
2022/11/27 06:13:16;;;;;;;9.70;2.43;;;6.20;82.70;;;;;;5029495;28;20077;-70
2022/11/27 06:15:44;;;;;;;6.22;1.73;;;6.20;82.70;;;;;;5029468;28;20285;-70
2022/11/27 06:18:12;;;;;;;8.15;2.30;;;6.20;82.60;;;;;;5028112;28;20056;-70
2022/11/27 06:20:39;;;;;;;7.93;2.22;;;6.20;82.30;;;;;;5029568;28;20593;-70
2022/11/27 06:23:06;;;;;;;7.22;2.55;;;6.20;82.30;;;;;;5030791;28;20266;-70
2022/11/27 06:25:33;;;;;;;7.70;2.43;;;6.20;82.40;;;;;;5030222;28;20793;-70
2022/11/27 06:28:00;;;;;;;8.80;2.92;;;6.20;82.30;;;;;;5030383;28;20342;-70
2022/11/27 06:30:27;;;;;;;8.75;2.50;;;6.20;82.40;;;;;;5045900;28;20665;-70
2022/11/27 06:32:56;;;;;;;9.05;2.42;;;6.20;82.50;;;;;;5010862;28;20109;-70
2022/11/27 06:35:23;;;;;;;6.82;2.53;;;6.20;82.40;;;;;;5024785;28;20052;-70
2022/11/27 06:37:50;;;;;;;9.70;2.97;;;6.20;81.90;;;;;;5029069;28;20049;-70
2022/11/27 06:40:17;;;;;;;8.45;2.50;;;6.20;81.90;;;;;;5029798;28;20261;-70
2022/11/27 06:42:44;;;;;;;10.60;2.97;;;6.20;81.80;;;;;;5028862;28;20056;-70
2022/11/27 06:45:12;;;;;;;11.70;2.65;;;6.20;81.70;;;;;;5030106;28;20057;-70
2022/11/27 06:47:40;;;;;;;9.27;2.35;;;6.20;81.70;;;;;;5030816;28;20054;-70
2022/11/27 06:50:09;;;;;;;8.63;2.57;;;6.20;81.80;;;;;;5030307;28;20065;-70
2022/11/27 06:52:36;;;;;;;11.73;3.17;;;6.20;81.80;;;;;;5028685;28;20592;-70
2022/11/27 06:55:03;;;;;;;9.02;2.80;;;6.20;81.70;;;;;;5030279;28;20065;-70
2022/11/27 06:57:30;;;;;;;8.05;2.67;;;6.20;81.70;;;;;;5028454;28;20064;-70
2022/11/27 06:59:57;;;;;;;9.60;2.63;;;6.20;81.70;;;;;;5028182;28;20165;-70
2022/11/27 07:02:24;;;;;;;7.20;2.33;;;6.20;81.70;;;;;;5028122;28;20050;-70
2022/11/27 07:04:52;;;;;;;9.60;2.72;;;6.10;81.60;;;;;;5030066;28;20288;-70
2022/11/27 07:07:20;;;;;;;9.63;3.00;;;6.20;81.60;;;;;;5031908;28;20057;-69
2022/11/27 07:09:47;;;;;;;9.13;2.55;;;6.10;81.50;;;;;;5028281;28;21042;-70
2022/11/27 07:12:14;;;;;;;8.77;3.15;;;6.10;81.60;;;;;;5028406;28;20046;-70
2022/11/27 07:14:42;;;;;;;8.67;3.00;;;6.10;81.60;;;;;;5029956;28;20054;-70
2022/11/27 07:17:09;;;;;;;8.48;2.65;;;6.10;81.60;;;;;;5028620;28;20261;-70
2022/11/27 07:19:36;;;;;;;7.82;2.83;;;6.10;81.60;;;;;;5029660;28;20133;-70
2022/11/27 07:22:03;;;;;;;8.25;2.92;;;6.10;81.50;;;;;;5045358;28;20132;-70
2022/11/27 07:24:31;;;;;;;8.75;2.55;;;6.20;81.60;;;;;;5028166;28;20503;-70
2022/11/27 07:26:58;;;;;;;8.00;2.90;;;6.10;81.60;;;;;;5027628;28;20054;-70
2022/11/27 07:29:26;;;;;;;9.80;3.05;;;6.10;81.70;;;;;;5029663;28;20259;-70
2022/11/27 07:31:53;;;;;;;8.45;3.35;;;6.10;81.70;;;;;;5025015;28;20087;-70
2022/11/27 07:34:20;;;;;;;9.50;3.38;;;6.20;81.50;;;;;;5012994;28;20047;-70
2022/11/27 07:36:47;;;;;;;7.90;2.50;;;6.20;81.50;;;;;;5031011;28;20050;-70
2022/11/27 07:39:14;;;;;;;8.17;2.63;;;6.10;81.50;;;;;;5027394;28;20052;-70
2022/11/27 07:41:42;;;;;;;10.63;3.38;;;6.10;81.60;;;;;;5031850;28;20254;-70
2022/11/27 07:44:10;;;;;;;10.18;3.00;;;6.10;81.70;;;;;;5031736;28;20476;-70
2022/11/27 07:46:37;;;;;;;9.27;3.00;;;6.20;81.70;;;;;;5025580;28;20054;-70
2022/11/27 07:49:04;;;;;;;9.30;3.40;;;6.10;81.70;;;;;;5031375;28;20748;-70
2022/11/27 07:51:31;;;;;;;9.77;3.10;;;6.10;81.80;;;;;;5032312;28;20050;-70
2022/11/27 07:53:59;;;;;;;9.45;2.95;;;6.10;81.80;;;;;;5031137;28;20296;-70
2022/11/27 07:56:27;;;;;;;11.50;3.60;;;6.10;81.90;;;;;;5031296;28;20554;-70
2022/11/27 07:58:56;;;;;;;9.07;2.60;;;6.10;81.90;;;;;;5030205;28;20038;-70
2022/11/27 08:01:24;;;;;;;10.20;3.15;;;6.20;82.00;;;;;;5031053;28;20056;-70
2022/11/27 08:03:51;;;;;;;7.73;3.17;;;6.10;81.80;;;;;;5013453;28;20522;-70
2022/11/27 08:06:19;;;;;;;11.40;2.95;;;6.10;81.70;;;;;;5030226;28;21220;-69
2022/11/27 08:08:47;;;;;;;9.35;3.33;;;6.10;81.80;;;;;;5029686;28;20137;-69
2022/11/27 08:11:22;;;;;;;11.10;3.13;;;6.20;81.80;;;;;;5029262;28;20049;-70
2022/11/27 08:13:51;;;;;;;11.80;3.20;;;6.20;81.70;;;;;;5029377;28;20046;-69
2022/11/27 08:16:19;;;;;;;11.13;3.47;;;6.10;81.80;;;;;;5030955;28;20046;-69
2022/11/27 08:18:46;;;;;;;11.57;3.60;;;6.20;81.90;;;;;;5029799;28;20315;-69
2022/11/27 08:21:13;;;;;;;11.75;3.40;;;6.20;81.70;;;;;;5024859;28;20093;-68
2022/11/27 08:23:40;;;;;;;10.48;3.58;;;6.20;81.70;;;;;;5010900;28;20047;-69
2022/11/27 08:26:09;;;;;;;11.05;3.38;;;6.20;81.80;;;;;;5027122;28;20077;-70
2022/11/27 08:28:37;;;;;;;10.20;3.13;;;6.20;81.80;;;;;;5031127;28;20136;-69
2022/11/27 08:31:05;;;;;;;11.40;3.50;;;6.20;81.80;;;;;;5030444;28;20769;-69
2022/11/27 08:33:34;;;;;;;9.60;3.65;;;6.20;81.70;;;;;;5030329;28;20042;-69
2022/11/27 08:36:01;;;;;;;10.95;3.50;;;6.20;81.70;;;;;;5026111;28;20133;-69
2022/11/27 08:38:28;;;;;;;10.93;3.47;;;6.20;81.80;;;;;;5023815;28;20050;-69
2022/11/27 08:40:56;;;;;;;11.27;3.93;;;6.20;81.80;;;;;;5022026;28;20069;-69
2022/11/27 08:43:24;;;;;;;8.35;3.75;;;6.20;81.80;;;;;;5019840;28;20417;-69
2022/11/27 08:45:51;;;;;;;10.43;3.35;;;6.20;81.90;;;;;;5037620;28;20062;-69
2022/11/27 08:48:19;;;;;;;11.95;3.80;;;6.20;81.90;;;;;;5034723;28;20506;-69
2022/11/27 08:50:49;;;;;;;10.45;3.45;;;6.20;81.80;;;;;;5022344;28;20054;-69
2022/11/27 08:53:17;;;;;;;11.00;3.23;;;6.30;81.90;;;;;;5027965;28;20054;-69
2022/11/27 08:55:45;;;;;;;11.13;3.75;;;6.30;81.90;;;;;;5024277;28;20245;-69
2022/11/27 08:58:12;;;;;;;11.23;3.65;;;6.30;81.90;;;;;;5020400;28;20058;-69
2022/11/27 09:00:41;;;;;;;10.00;3.65;;;6.30;81.90;;;;;;5022244;28;20050;-69
2022/11/27 09:03:11;;;;;;;10.65;3.90;;;6.30;81.80;;;;;;5029118;28;20042;-69
2022/11/27 09:05:41;;;;;;;10.57;3.80;;;6.30;81.90;;;;;;5011763;28;20806;-69
2022/11/27 09:08:12;;;;;;;9.15;3.40;;;6.30;81.90;;;;;;5030366;28;20254;-69
2022/11/27 09:10:39;;;;;;;11.35;3.50;;;6.30;81.90;;;;;;5029520;28;20124;-69
2022/11/27 09:13:06;;;;;;;11.00;3.58;;;6.30;81.90;;;;;;5029942;28;20050;-69
2022/11/27 09:15:33;;;;;;;11.77;3.55;;;6.30;81.80;;;;;;5029014;28;20057;-69
2022/11/27 09:18:00;;;;;;;10.10;3.87;;;6.30;81.90;;;;;;5031422;28;20050;-69
2022/11/27 09:20:27;;;;;;;11.27;3.65;;;6.40;82.00;;;;;;5030837;28;20258;-70
2022/11/27 09:22:54;;;;;;;10.82;3.88;;;6.30;82.00;;;;;;5030958;28;20220;-70
2022/11/27 09:25:23;;;;;;;11.65;3.90;;;6.40;82.20;;;;;;5030946;28;20058;-70
2022/11/27 09:27:50;;;;;;;9.73;3.53;;;6.40;82.10;;;;;;5029931;28;20061;-70
2022/11/27 09:30:17;;;;;;;9.67;4.00;;;6.40;82.10;;;;;;5044350;28;20053;-70
2022/11/27 09:32:44;;;;;;;11.35;4.03;;;6.40;82.10;;;;;;5029882;28;20266;-69
2022/11/27 09:35:12;;;;;;;9.93;4.05;;;6.40;82.20;;;;;;5030305;28;20050;-69
2022/11/27 09:37:39;;;;;;;10.45;3.60;;;6.40;82.30;;;;;;5030990;28;20050;-69
2022/11/27 09:40:08;;;;;;;9.88;3.70;;;6.40;82.20;;;;;;5030234;28;20581;-69
2022/11/27 09:42:40;;;;;;;11.97;4.30;;;6.40;82.20;;;;;;5030939;28;20045;-69
2022/11/27 09:45:13;;;;;;;12.45;4.57;;;6.50;82.30;;;;;;5030590;28;20257;-69
2022/11/27 09:47:44;;;;;;;11.73;4.25;;;6.40;82.30;;;;;;5028321;28;20049;-69
2022/11/27 09:50:15;;;;;;;11.23;4.78;;;6.40;82.40;;;;;;5012545;28;20494;-69
2022/11/27 09:52:45;;;;;;;12.20;4.78;;;6.40;82.50;;;;;;5029944;28;20141;-69
2022/11/27 09:55:17;;;;;;;13.37;5.27;;;6.50;82.60;;;;;;5029584;28;20137;-69
2022/11/27 09:57:59;;;;;;;10.75;4.43;;;6.50;82.70;;;;;;5029742;28;20285;-69
2022/11/27 10:00:26;;;;;;;12.82;5.47;;;6.50;82.70;;;;;;5027829;28;20053;-69
2022/11/27 10:02:53;;;;;;;16.90;5.35;;;6.50;82.80;;;;;;5028186;28;20049;-69
2022/11/27 10:05:25;;;;;;;16.70;7.45;;;6.50;82.80;;;;;;5027865;28;20080;-69
2022/11/27 10:08:22;;;;;;;13.10;4.43;;;6.50;82.80;;;;;;5028597;28;20056;-69
2022/11/27 10:11:00;;;;;;;14.13;5.93;;;6.50;82.90;;;;;;5044849;28;20253;-69
2022/11/27 10:13:53;;;;;;;13.15;6.35;;;6.50;83.00;;;;;;5029326;28;20045;-69
2022/11/27 10:16:30;;;;;;;13.05;5.15;;;6.50;83.00;;;;;;5030884;28;20129;-69
2022/11/27 10:19:04;;;;;;;10.35;3.70;;;6.50;83.10;;;;;;5028604;28;21073;-69
2022/11/27 10:21:39;;;;;;;12.13;4.20;;;6.50;83.20;;;;;;5026696;28;20056;-70
2022/11/27 10:24:18;;;;;;;13.13;4.50;;;6.50;83.20;;;;;;5035994;28;20364;-69
2022/11/27 10:26:47;;;;;;;13.18;4.38;;;6.50;83.20;;;;;;5027197;28;20058;-70
2022/11/27 10:29:29;;;;;;;12.18;4.75;;;6.50;83.40;;;;;;5026999;28;20050;-70
2022/11/27 10:32:01;;;;;;;12.60;4.40;;;6.50;83.40;;;;;;5022952;28;20054;-70
2022/11/27 10:34:37;;;;;;;10.73;3.63;;;6.60;83.50;;;;;;5027738;28;20054;-70
2022/11/27 10:37:12;;;;;;;12.75;4.00;;;6.50;83.50;;;;;;5024676;28;20259;-70
2022/11/27 10:39:43;;;;;;;12.65;5.05;;;6.60;83.60;;;;;;5041256;28;20056;-67
2022/11/27 10:42:14;;;;;;;9.82;4.07;;;6.50;83.70;;;;;;5028465;28;20127;-69
2022/11/27 10:44:47;;;;;;;11.88;4.28;;;6.60;83.60;;;;;;5027781;28;20112;-69
2022/11/27 10:47:15;;;;;;;12.53;3.83;;;6.60;83.70;;;;;;5028445;28;20161;-69
2022/11/27 10:49:44;;;;;;;11.95;4.50;;;6.60;83.80;;;;;;5028212;28;21064;-69
2022/11/27 10:52:16;;;;;;;11.13;4.57;;;6.60;83.80;;;;;;5028194;28;20117;-69
2022/11/27 10:54:45;;;;;;;12.55;4.00;;;6.60;83.80;;;;;;5029985;28;20124;-69
2022/11/27 10:57:24;;;;;;;10.50;3.55;;;6.60;84.00;;;;;;5028746;28;20796;-70
2022/11/27 11:00:03;;;;;;;10.17;3.80;;;6.60;83.90;;;;;;5028994;28;20078;-69
2022/11/27 11:02:34;;;;;;;11.88;4.30;;;6.60;84.00;;;;;;5029313;28;20273;-69
2022/11/27 11:05:19;;;;;;;10.13;3.72;;;6.60;84.00;;;;;;5029074;28;20072;-69
2022/11/27 11:07:58;;;;;;;10.38;3.85;;;6.60;84.00;;;;;;5029743;28;20050;-69
2022/11/27 11:10:31;;;;;;;10.35;3.65;;;6.60;84.20;;;;;;5028258;28;20049;-70
2022/11/27 11:13:20;;;;;;;9.10;3.43;;;6.60;84.10;;;;;;5028497;28;20051;-70
2022/11/27 11:15:52;;;;;;;10.88;3.75;;;6.60;84.20;;;;;;5022841;28;20273;-69
2022/11/27 11:18:20;;;;;;;11.60;4.03;;;6.60;84.20;;;;;;5029002;28;20191;-69
2022/11/27 11:20:49;;;;;;;10.13;3.88;;;6.60;84.20;;;;;;5024009;28;20042;-69
2022/11/27 11:23:39;;;;;;;10.38;3.83;;;6.60;84.20;;;;;;5027259;28;20046;-70
2022/11/27 11:26:15;;;;;;;9.87;4.20;;;6.60;84.10;;;;;;5021556;28;20052;-70
2022/11/27 11:28:48;;;;;;;9.85;3.90;;;6.60;84.20;;;;;;5022869;28;20810;-70
2022/11/27 11:31:20;;;;;;;9.70;3.60;;;6.60;84.20;;;;;;5022568;28;20056;-69
2022/11/27 11:33:52;;;;;;;11.00;3.70;;;6.60;84.30;;;;;;5040388;28;20156;-69
2022/11/27 11:36:20;;;;;;;12.88;4.25;;;6.60;84.30;;;;;;5025010;28;20234;-70
2022/11/27 11:38:48;;;;;;;9.77;3.73;;;6.60;84.40;;;;;;5020534;28;20543;-70
2022/11/27 11:41:16;;;;;;;13.15;4.43;;;6.70;84.50;;;;;;5028274;28;20261;-70
2022/11/27 11:43:54;;;;;;;10.25;4.28;;;6.70;84.70;;;;;;5029034;28;20147;-69
2022/11/27 11:46:25;;;;;;;10.55;3.53;;;6.70;84.60;;;;;;5028294;28;20650;-70
2022/11/27 11:48:57;;;;;;;10.40;3.78;;;6.70;84.70;;;;;;5026796;28;20134;-70
2022/11/27 11:51:36;;;;;;;8.70;3.40;;;6.70;84.80;;;;;;5022852;28;20145;-70
2022/11/27 11:54:17;;;;;;;7.90;3.20;;;6.70;84.80;;;;;;5043867;28;20627;-70
2022/11/27 11:56:51;;;;;;;8.27;3.10;;;6.70;84.70;;;;;;5026968;28;20140;-70
2022/11/27 11:59:24;;;;;;;9.15;3.58;;;6.70;84.80;;;;;;5026112;28;20050;-69
2022/11/27 12:02:13;;;;;;;9.23;3.00;;;6.80;84.80;;;;;;5023321;28;20393;-70
2022/11/27 12:05:05;;;;;;;9.93;3.90;;;6.70;85.00;;;;;;5024301;28;20566;-69
2022/11/27 12:07:47;;;;;;;10.90;3.58;;;6.70;84.90;;;;;;5016703;28;20620;-72
2022/11/27 12:10:21;;;;;;;8.43;3.45;;;6.80;85.00;;;;;;5024000;28;20064;-70
2022/11/27 12:13:04;;;;;;;9.98;3.55;;;6.80;85.10;;;;;;5026655;28;20122;-72
2022/11/27 12:15:38;;;;;;;9.90;3.25;;;6.80;85.20;;;;;;5027517;28;20136;-70
2022/11/27 12:18:13;;;;;;;8.23;3.10;;;6.80;85.30;;;;;;5021394;28;20074;-68
2022/11/27 12:20:51;;;;;;;8.68;3.72;;;6.80;85.30;;;;;;5007586;28;20321;-69
2022/11/27 12:23:45;;;;;;;10.07;3.70;;;6.80;85.20;;;;;;5018030;28;20052;-69
2022/11/27 12:26:19;;;;;;;10.38;3.42;;;6.90;85.30;;;;;;5026500;28;20042;-70
2022/11/27 12:29:08;;;;;;;9.68;3.55;;;6.80;85.20;;;;;;5031759;28;20988;-69
2022/11/27 12:31:52;;;;;;;8.73;3.50;;;6.90;85.20;;;;;;5031799;28;20058;-69
2022/11/27 12:34:33;;;;;;;10.15;3.65;;;6.90;85.20;;;;;;5030915;28;20337;-70
2022/11/27 12:37:31;;;;;;;8.98;3.28;;;6.90;85.20;;;;;;5029728;28;20050;-69
2022/11/27 12:40:14;;;;;;;7.78;3.50;;;6.90;85.20;;;;;;5029806;28;20062;-70
2022/11/27 12:42:49;;;;;;;12.13;4.85;;;6.90;85.10;;;;;;5023052;28;20054;-71
2022/11/27 12:45:21;;;;;;;9.00;4.03;;;6.90;85.10;;;;;;5021790;28;20046;-69
2022/11/27 12:47:54;;;;;;;10.93;3.65;;;6.90;85.20;;;;;;5024208;28;20253;-70
2022/11/27 12:50:29;;;;;;;8.77;3.35;;;6.90;85.10;;;;;;5037801;28;20096;-70
2022/11/27 12:53:00;;;;;;;8.80;3.70;;;7.00;85.10;;;;;;5023333;28;20152;-70
2022/11/27 12:55:30;;;;;;;8.75;3.60;;;7.00;85.10;;;;;;5036081;28;20471;-70
2022/11/27 12:58:03;;;;;;;8.20;3.37;;;7.00;85.10;;;;;;5022326;28;20121;-70
2022/11/27 13:00:31;;;;;;;8.43;3.40;;;7.00;85.10;;;;;;5017790;28;20283;-70
2022/11/27 13:03:06;;;;;;;8.95;3.65;;;7.00;85.00;;;;;;5002403;28;20042;-70
2022/11/27 13:05:41;;;;;;;8.80;3.60;;;7.00;85.10;;;;;;5030293;28;20053;-70
2022/11/27 13:08:15;;;;;;;8.90;2.92;;;7.00;85.10;;;;;;5028068;28;20052;-70
2022/11/27 13:10:47;;;;;;;8.57;3.40;;;7.00;85.10;;;;;;5027946;28;20050;-71